Time,TemperatureF,DewpointF,PressureIn,WindDirection,WindDirectionDegrees,WindSpeedMPH,WindSpeedGustMPH,Humidity,HourlyPrecipIn,Conditions,Clouds,dailyrainin,SoftwareType,DateUTC
2013-08-31 00:02:00,75.9,71.8,29.49,SSW,197,0.0,0.0,87,0.00,,,0.00,Wunderground v.1.15,2013-08-31 05:02:00,
2013-08-31 00:08:00,75.8,71.7,29.49,SSW,197,0.0,0.0,87,0.00,,,0.00,Wunderground v.1.15,2013-08-31 05:08:00,
2013-08-31 00:13:00,75.9,71.8,29.49,SE,138,0.0,0.0,87,0.00,,,0.00,Wunderground v.1.15,2013-08-31 05:13:00,
2013-08-31 00:18:00,75.8,72.0,29.49,SE,131,0.0,0.0,88,0.00,,,0.00,Wunderground v.1.15,2013-08-31 05:18:00,
2013-08-31 00:23:00,75.7,71.9,29.49,SSE,149,0.0,0.0,88,0.00,,,0.00,Wunderground v.1.15,2013-08-31 05:23:00,
2013-08-31 00:29:00,75.6,71.8,29.49,SSE,150,0.0,0.0,88,0.00,,,0.00,Wunderground v.1.15,2013-08-31 05:29:00,
2013-08-31 00:34:00,75.5,71.7,29.50,SSE,150,0.0,0.0,88,0.00,,,0.00,Wunderground v.1.15,2013-08-31 05:34:00,
2013-08-31 00:39:00,75.5,71.7,29.50,SSE,149,0.0,0.0,88,0.00,,,0.00,Wunderground v.1.15,2013-08-31 05:39:00,
2013-08-31 00:45:00,75.5,71.7,29.49,SE,146,0.0,0.0,88,0.00,,,0.00,Wunderground v.1.15,2013-08-31 05:45:00,
2013-08-31 00:50:00,75.4,71.6,29.49,SSE,149,0.0,0.0,88,0.00,,,0.00,Wunderground v.1.15,2013-08-31 05:50:00,
2013-08-31 00:56:00,75.3,71.8,29.49,SSE,160,0.0,0.0,89,0.00,,,0.00,Wunderground v.1.15,2013-08-31 05:56:00,
2013-08-31 01:01:00,75.1,71.6,29.49,SSE,165,0.0,0.0,89,0.00,,,0.00,Wunderground v.1.15,2013-08-31 06:01:00,
2013-08-31 01:07:00,75.0,71.5,29.49,SSE,166,0.0,0.0,89,0.00,,,0.00,Wunderground v.1.15,2013-08-31 06:07:00,
2013-08-31 01:12:00,74.9,71.4,29.49,SSE,155,0.0,0.0,89,0.00,,,0.00,Wunderground v.1.15,2013-08-31 06:12:00,
2013-08-31 01:17:00,74.9,71.4,29.49,SE,145,0.0,0.0,89,0.00,,,0.00,Wunderground v.1.15,2013-08-31 06:17:00,
2013-08-31 01:23:00,74.8,71.7,29.49,SSE,155,0.0,0.0,90,0.00,,,0.00,Wunderground v.1.15,2013-08-31 06:23:00,
2013-08-31 01:28:00,74.7,71.6,29.49,South,170,0.0,0.0,90,0.00,,,0.00,Wunderground v.1.15,2013-08-31 06:28:00,
2013-08-31 01:33:00,74.6,71.5,29.49,SSE,150,0.0,0.0,90,0.00,,,0.00,Wunderground v.1.15,2013-08-31 06:33:00,
2013-08-31 01:38:00,74.5,71.7,29.49,SSW,197,0.0,0.0,91,0.00,,,0.00,Wunderground v.1.15,2013-08-31 06:38:00,
2013-08-31 01:44:00,74.4,71.6,29.49,SSE,163,0.0,0.0,91,0.00,,,0.00,Wunderground v.1.15,2013-08-31 06:44:00,
2013-08-31 01:49:00,74.3,71.5,29.49,SSW,203,0.0,0.0,91,0.00,,,0.00,Wunderground v.1.15,2013-08-31 06:49:00,
2013-08-31 01:54:00,74.3,71.5,29.49,SSW,205,0.0,0.0,91,0.00,,,0.00,Wunderground v.1.15,2013-08-31 06:54:00,
2013-08-31 02:00:00,74.2,71.4,29.49,SSW,205,0.0,0.0,91,0.00,,,0.00,Wunderground v.1.15,2013-08-31 07:00:00,
2013-08-31 02:05:00,74.2,71.4,29.49,SSW,205,0.0,0.0,91,0.00,,,0.00,Wunderground v.1.15,2013-08-31 07:05:00,
2013-08-31 02:10:00,74.2,71.4,29.49,SSW,206,0.0,0.0,91,0.00,,,0.00,Wunderground v.1.15,2013-08-31 07:10:00,
2013-08-31 02:15:00,74.2,71.4,29.49,SW,226,0.0,0.0,91,0.00,,,0.00,Wunderground v.1.15,2013-08-31 07:15:00,
2013-08-31 02:20:00,74.3,71.5,29.49,SE,145,0.0,0.0,91,0.00,,,0.00,Wunderground v.1.15,2013-08-31 07:20:00,
2013-08-31 02:25:00,74.3,71.5,29.49,SE,146,0.0,0.0,91,0.00,,,0.00,Wunderground v.1.15,2013-08-31 07:25:00,
2013-08-31 02:30:00,74.3,71.2,29.49,SSE,163,0.0,0.0,90,0.00,,,0.00,Wunderground v.1.15,2013-08-31 07:30:00,
2013-08-31 02:35:00,74.4,71.3,29.49,SSE,164,0.0,0.0,90,0.00,,,0.00,Wunderground v.1.15,2013-08-31 07:35:00,
2013-08-31 02:40:00,74.4,71.3,29.49,SSE,162,0.0,0.0,90,0.00,,,0.00,Wunderground v.1.15,2013-08-31 07:40:00,
2013-08-31 02:45:00,74.4,71.3,29.49,SSE,162,0.0,0.0,90,0.00,,,0.00,Wunderground v.1.15,2013-08-31 07:45:00,
2013-08-31 02:50:00,74.5,71.4,29.48,SE,137,0.0,0.0,90,0.00,,,0.00,Wunderground v.1.15,2013-08-31 07:50:00,
2013-08-31 02:55:00,74.6,71.5,29.49,SE,137,0.0,0.0,90,0.00,,,0.00,Wunderground v.1.15,2013-08-31 07:55:00,
2013-08-31 03:00:00,74.5,71.4,29.49,SE,137,0.0,0.0,90,0.00,,,0.00,Wunderground v.1.15,2013-08-31 08:00:00,
2013-08-31 03:05:00,74.5,71.4,29.49,SE,144,0.0,0.0,90,0.00,,,0.00,Wunderground v.1.15,2013-08-31 08:05:00,
2013-08-31 03:10:00,74.5,71.4,29.49,SSE,155,0.0,0.0,90,0.00,,,0.00,Wunderground v.1.15,2013-08-31 08:10:00,
2013-08-31 03:15:00,74.4,71.3,29.49,SSE,147,0.0,0.0,90,0.00,,,0.00,Wunderground v.1.15,2013-08-31 08:15:00,
2013-08-31 03:20:00,74.3,71.2,29.49,SSE,158,0.0,0.0,90,0.00,,,0.00,Wunderground v.1.15,2013-08-31 08:20:00,
2013-08-31 03:25:00,74.3,71.2,29.49,SSE,152,0.0,0.0,90,0.00,,,0.00,Wunderground v.1.15,2013-08-31 08:25:00,
2013-08-31 03:30:00,74.2,71.1,29.49,SE,144,0.0,0.0,90,0.00,,,0.00,Wunderground v.1.15,2013-08-31 08:30:00,
2013-08-31 03:35:00,74.2,71.1,29.49,SSE,156,0.0,0.0,90,0.00,,,0.00,Wunderground v.1.15,2013-08-31 08:35:00,
2013-08-31 03:40:00,74.2,71.1,29.49,SE,145,0.0,0.0,90,0.00,,,0.00,Wunderground v.1.15,2013-08-31 08:40:00,
2013-08-31 03:45:00,74.2,71.1,29.49,SE,137,0.0,0.0,90,0.00,,,0.00,Wunderground v.1.15,2013-08-31 08:45:00,
2013-08-31 03:50:00,74.2,71.1,29.49,SSE,155,0.0,0.0,90,0.00,,,0.00,Wunderground v.1.15,2013-08-31 08:50:00,
2013-08-31 03:55:00,74.2,71.1,29.49,SE,144,0.0,0.0,90,0.00,,,0.00,Wunderground v.1.15,2013-08-31 08:55:00,
2013-08-31 04:00:00,74.2,71.1,29.49,SE,137,0.0,0.0,90,0.00,,,0.00,Wunderground v.1.15,2013-08-31 09:00:00,
2013-08-31 04:05:00,74.1,71.0,29.50,SE,136,0.0,0.0,90,0.00,,,0.00,Wunderground v.1.15,2013-08-31 09:05:00,
2013-08-31 04:10:00,74.1,71.0,29.49,SSE,150,0.0,0.0,90,0.00,,,0.00,Wunderground v.1.15,2013-08-31 09:10:00,
2013-08-31 04:15:00,74.1,71.0,29.49,SSW,205,0.0,0.0,90,0.00,,,0.00,Wunderground v.1.15,2013-08-31 09:15:00,
2013-08-31 04:20:00,74.1,71.0,29.49,SE,134,0.0,0.0,90,0.00,,,0.00,Wunderground v.1.15,2013-08-31 09:20:00,
2013-08-31 04:25:00,74.1,70.6,29.49,SE,136,0.0,0.0,89,0.00,,,0.00,Wunderground v.1.15,2013-08-31 09:25:00,
2013-08-31 04:30:00,74.2,71.1,29.49,NE,43,0.0,0.0,90,0.00,,,0.00,Wunderground v.1.15,2013-08-31 09:30:00,
2013-08-31 04:35:00,74.4,71.3,29.50,NW,316,0.0,0.0,90,0.00,,,0.00,Wunderground v.1.15,2013-08-31 09:35:00,
2013-08-31 04:40:00,74.4,71.3,29.50,NE,34,0.0,0.0,90,0.00,,,0.00,Wunderground v.1.15,2013-08-31 09:40:00,
2013-08-31 04:45:00,74.5,71.0,29.50,East,94,0.0,1.0,89,0.00,,,0.00,Wunderground v.1.15,2013-08-31 09:45:00,
2013-08-31 04:50:00,74.7,71.2,29.50,East,94,0.0,0.0,89,0.00,,,0.00,Wunderground v.1.15,2013-08-31 09:50:00,
2013-08-31 04:55:00,74.8,71.7,29.50,NE,43,0.0,1.0,90,0.00,,,0.00,Wunderground v.1.15,2013-08-31 09:55:00,
2013-08-31 05:00:00,74.9,71.4,29.50,NW,312,0.0,0.0,89,0.00,,,0.00,Wunderground v.1.15,2013-08-31 10:00:00,
2013-08-31 05:05:00,75.4,71.3,29.51,WNW,289,2.0,3.0,87,0.00,,,0.00,Wunderground v.1.15,2013-08-31 10:05:00,
2013-08-31 05:10:00,75.9,71.4,29.51,WNW,285,2.0,2.0,86,0.00,,,0.00,Wunderground v.1.15,2013-08-31 10:10:00,
2013-08-31 05:16:00,76.3,68.2,29.51,NNW,329,5.0,22.0,76,0.00,,,0.00,Wunderground v.1.15,2013-08-31 10:16:00,
2013-08-31 05:21:00,75.5,63.8,29.51,NNW,345,17.0,17.0,67,0.00,,,0.00,Wunderground v.1.15,2013-08-31 10:21:00,
2013-08-31 05:26:00,76.4,63.3,29.50,West,281,15.0,22.0,64,0.00,,,0.00,Wunderground v.1.15,2013-08-31 10:26:00,
2013-08-31 05:31:00,76.3,64.1,29.50,West,273,5.0,11.0,66,0.00,,,0.00,Wunderground v.1.15,2013-08-31 10:31:00,
2013-08-31 05:36:00,76.4,65.1,29.50,West,276,3.0,11.0,68,0.00,,,0.00,Wunderground v.1.15,2013-08-31 10:36:00,
2013-08-31 05:41:00,76.8,65.4,29.50,West,281,3.0,4.0,68,0.00,,,0.00,Wunderground v.1.15,2013-08-31 10:41:00,
2013-08-31 05:46:00,77.2,65.4,29.50,West,260,3.0,8.0,67,0.00,,,0.00,Wunderground v.1.15,2013-08-31 10:46:00,
2013-08-31 05:51:00,77.8,66.0,29.50,SW,236,2.0,5.0,67,0.00,,,0.00,Wunderground v.1.15,2013-08-31 10:51:00,
2013-08-31 05:56:00,78.0,66.2,29.50,West,273,3.0,6.0,67,0.00,,,0.00,Wunderground v.1.15,2013-08-31 10:56:00,
2013-08-31 06:01:00,77.9,66.5,29.49,WNW,287,2.0,2.0,68,0.00,,,0.00,Wunderground v.1.15,2013-08-31 11:01:00,
2013-08-31 06:06:00,77.8,66.4,29.49,SW,222,0.0,4.0,68,0.00,,,0.00,Wunderground v.1.15,2013-08-31 11:06:00,
2013-08-31 06:11:00,77.6,66.6,29.49,SW,214,2.0,3.0,69,0.00,,,0.00,Wunderground v.1.15,2013-08-31 11:11:00,
2013-08-31 06:16:00,77.2,66.7,29.49,South,172,1.0,4.0,70,0.00,,,0.00,Wunderground v.1.15,2013-08-31 11:16:00,
2013-08-31 06:21:00,76.9,66.4,29.49,SSW,208,0.0,1.0,70,0.00,,,0.00,Wunderground v.1.15,2013-08-31 11:21:00,
2013-08-31 06:26:00,76.6,66.9,29.49,SSW,211,0.0,2.0,72,0.00,,,0.00,Wunderground v.1.15,2013-08-31 11:26:00,
2013-08-31 06:31:00,76.3,67.4,29.49,South,169,1.0,3.0,74,0.00,,,0.00,Wunderground v.1.15,2013-08-31 11:31:00,
2013-08-31 06:36:00,76.1,68.4,29.49,SSW,204,0.0,3.0,77,0.00,,,0.00,Wunderground v.1.15,2013-08-31 11:36:00,
2013-08-31 06:41:00,75.9,68.5,29.49,SW,219,0.0,0.0,78,0.00,,,0.00,Wunderground v.1.15,2013-08-31 11:41:00,
2013-08-31 06:46:00,75.7,69.1,29.49,South,186,2.0,2.0,80,0.00,,,0.00,Wunderground v.1.15,2013-08-31 11:46:00,
2013-08-31 06:51:00,75.4,69.5,29.49,SSE,158,0.0,2.0,82,0.00,,,0.00,Wunderground v.1.15,2013-08-31 11:51:00,
2013-08-31 06:56:00,75.2,69.7,29.49,South,187,0.0,3.0,83,0.00,,,0.00,Wunderground v.1.15,2013-08-31 11:56:00,
2013-08-31 07:01:00,75.1,69.6,29.49,SW,225,0.0,1.0,83,0.00,,,0.00,Wunderground v.1.15,2013-08-31 12:01:00,
2013-08-31 07:06:00,75.1,69.6,29.49,SW,224,1.0,3.0,83,0.00,,,0.00,Wunderground v.1.15,2013-08-31 12:06:00,
2013-08-31 07:11:00,75.0,69.5,29.49,SSW,211,0.0,1.0,83,0.00,,,0.00,Wunderground v.1.15,2013-08-31 12:11:00,
2013-08-31 07:16:00,75.0,69.5,29.50,SW,236,0.0,1.0,83,0.00,,,0.00,Wunderground v.1.15,2013-08-31 12:16:00,
2013-08-31 07:21:00,75.0,69.8,29.49,SSW,205,0.0,0.0,84,0.00,,,0.00,Wunderground v.1.15,2013-08-31 12:21:00,
2013-08-31 07:26:00,75.0,69.8,29.49,ESE,122,1.0,1.0,84,0.00,,,0.00,Wunderground v.1.15,2013-08-31 12:26:00,
2013-08-31 07:31:00,75.2,69.7,29.49,South,184,0.0,1.0,83,0.00,,,0.00,Wunderground v.1.15,2013-08-31 12:31:00,
2013-08-31 07:36:00,75.4,69.9,29.49,SSE,165,3.0,3.0,83,0.00,,,0.00,Wunderground v.1.15,2013-08-31 12:36:00,
2013-08-31 07:41:00,75.6,70.1,29.50,SSW,205,2.0,5.0,83,0.00,,,0.00,Wunderground v.1.15,2013-08-31 12:41:00,
2013-08-31 07:46:00,75.8,69.9,29.50,SSW,200,3.0,7.0,82,0.00,,,0.00,Wunderground v.1.15,2013-08-31 12:46:00,
2013-08-31 07:51:00,76.1,70.2,29.50,SSE,159,3.0,4.0,82,0.00,,,0.00,Wunderground v.1.15,2013-08-31 12:51:00,
2013-08-31 07:56:00,76.2,69.9,29.50,SE,146,3.0,7.0,81,0.00,,,0.00,Wunderground v.1.15,2013-08-31 12:56:00,